LLOV

Ovda International Airport

Eilat, Israel
TAF LLOV 212306Z 2200/2224 24005KT CAVOK BECMG 2207/2209 33010KT BECMG 2218/2220 24005KT TX19/2212Z TN06/2204Z
Issued Valid From Valid To
Jan-21 @ 23:06 UTC
(an hour ago)
Jan-22 @ 00:00 UTC
(11 minutes ago)
Jan-23 @ 00:00 UTC
(in 24 hours)
Jan-22 @ 00:00 to Jan-22 @ 07:00
TAF LLOV 212306Z 2200/2224 24005KT CAVOK
Wind Visibility Clouds Conditions
240° at 5 knots 10,000+ meters
  • No significant clouds
Becoming Jan-22 @ 07:00 to Jan-22 @ 18:00
BECMG 2207/2209 33010KT
Wind Visibility Clouds Conditions
330° at 10 knots 10,000+ meters
  • No significant clouds
Becoming Jan-22 @ 18:00 to Jan-23 @ 00:00
BECMG 2218/2220 24005KT TX19/2212Z TN06/2204Z
Wind Visibility Clouds Conditions
240° at 5 knots 10,000+ meters
  • No significant clouds
TAF LLOV 212306Z 2200/2224 24005KT CAVOK BECMG 2207/2209 33010KT BECMG 2218/2220 24005KT TX19/2212Z TN06/2204Z
Issued Jan-21 @ 23:06 UTC
(an hour ago)
Valid From Jan-22 @ 00:00 UTC
(11 minutes ago)
Valid To Jan-23 @ 00:00 UTC
(in 24 hours)
Jan-22 @ 00:00 - Jan-22 @ 07:00
Wind Visibility
240° at 5 knots 10,000+ meters
Clouds
  • No significant clouds
Conditions
Becoming Jan-22 @ 07:00 - Jan-22 @ 18:00
Wind Visibility
330° at 10 knots 10,000+ meters
Clouds
  • No significant clouds
Conditions
Becoming Jan-22 @ 18:00 - Jan-23 @ 00:00
Wind Visibility
240° at 5 knots 10,000+ meters
Clouds
  • No significant clouds
Conditions